sensor_id;sensor_type;location;lat;lon;timestamp;pressure;altitude;pressure_sealevel;temperature;humidity
10720;BME280;5411;58.386;15.560;2022-07-30T00:00:52;101165.88;;;19.83;58.07
10720;BME280;5411;58.386;15.560;2022-07-30T00:03:26;101162.72;;;19.75;59.00
10720;BME280;5411;58.386;15.560;2022-07-30T00:05:54;101159.03;;;19.81;58.91
10720;BME280;5411;58.386;15.560;2022-07-30T00:08:23;101157.47;;;19.68;58.84
10720;BME280;5411;58.386;15.560;2022-07-30T00:10:51;101163.84;;;19.62;58.81
10720;BME280;5411;58.386;15.560;2022-07-30T00:13:21;101167.72;;;19.66;58.70
10720;BME280;5411;58.386;15.560;2022-07-30T00:15:49;101166.84;;;19.49;59.18
10720;BME280;5411;58.386;15.560;2022-07-30T00:18:19;101166.75;;;19.32;59.39
10720;BME280;5411;58.386;15.560;2022-07-30T00:20:48;101159.50;;;19.09;59.90
10720;BME280;5411;58.386;15.560;2022-07-30T00:23:18;101163.44;;;18.90;60.46
10720;BME280;5411;58.386;15.560;2022-07-30T00:25:46;101158.50;;;18.75;61.70
10720;BME280;5411;58.386;15.560;2022-07-30T00:28:14;101157.31;;;18.60;61.88
10720;BME280;5411;58.386;15.560;2022-07-30T00:30:43;101158.69;;;18.39;62.67
10720;BME280;5411;58.386;15.560;2022-07-30T00:33:11;101152.78;;;18.19;63.84
10720;BME280;5411;58.386;15.560;2022-07-30T00:35:40;101157.00;;;18.03;63.69
10720;BME280;5411;58.386;15.560;2022-07-30T00:38:11;101149.00;;;17.96;64.95
10720;BME280;5411;58.386;15.560;2022-07-30T00:40:39;101150.97;;;18.01;64.10
10720;BME280;5411;58.386;15.560;2022-07-30T00:43:13;101154.06;;;18.16;64.20
10720;BME280;5411;58.386;15.560;2022-07-30T00:45:42;101154.44;;;18.20;63.49
10720;BME280;5411;58.386;15.560;2022-07-30T00:48:13;101147.94;;;18.09;64.52
10720;BME280;5411;58.386;15.560;2022-07-30T00:50:42;101147.13;;;18.08;64.55
10720;BME280;5411;58.386;15.560;2022-07-30T00:53:11;101149.56;;;17.98;64.31
10720;BME280;5411;58.386;15.560;2022-07-30T00:55:39;101151.31;;;17.93;64.44
10720;BME280;5411;58.386;15.560;2022-07-30T00:58:07;101142.13;;;17.82;65.90
10720;BME280;5411;58.386;15.560;2022-07-30T01:00:36;101144.09;;;17.75;65.45
10720;BME280;5411;58.386;15.560;2022-07-30T01:03:04;101140.44;;;17.69;65.72
10720;BME280;5411;58.386;15.560;2022-07-30T01:05:33;101141.72;;;17.67;66.81
10720;BME280;5411;58.386;15.560;2022-07-30T01:08:03;101137.19;;;17.61;66.55
10720;BME280;5411;58.386;15.560;2022-07-30T01:10:31;101132.34;;;17.63;67.01
10720;BME280;5411;58.386;15.560;2022-07-30T01:13:00;101136.00;;;17.57;66.72
10720;BME280;5411;58.386;15.560;2022-07-30T01:15:29;101143.00;;;17.46;68.14
10720;BME280;5411;58.386;15.560;2022-07-30T01:18:01;101136.81;;;17.27;68.99
10720;BME280;5411;58.386;15.560;2022-07-30T01:20:33;101134.94;;;17.09;69.15
10720;BME280;5411;58.386;15.560;2022-07-30T01:23:13;101135.41;;;16.88;70.02
10720;BME280;5411;58.386;15.560;2022-07-30T01:25:52;101138.38;;;16.62;72.06
10720;BME280;5411;58.386;15.560;2022-07-30T01:28:25;101140.41;;;16.42;72.70
10720;BME280;5411;58.386;15.560;2022-07-30T01:30:55;101143.22;;;16.28;73.95
10720;BME280;5411;58.386;15.560;2022-07-30T01:33:25;101140.66;;;16.15;74.72
10720;BME280;5411;58.386;15.560;2022-07-30T01:35:54;101144.88;;;16.04;74.96
10720;BME280;5411;58.386;15.560;2022-07-30T01:38:24;101136.88;;;15.91;75.93
10720;BME280;5411;58.386;15.560;2022-07-30T01:41:02;101150.06;;;15.75;76.99
10720;BME280;5411;58.386;15.560;2022-07-30T01:43:34;101149.72;;;15.64;77.81
10720;BME280;5411;58.386;15.560;2022-07-30T01:46:02;101150.00;;;15.56;77.84
10720;BME280;5411;58.386;15.560;2022-07-30T01:48:34;101144.59;;;15.50;78.66
10720;BME280;5411;58.386;15.560;2022-07-30T01:51:04;101147.69;;;15.53;79.31
10720;BME280;5411;58.386;15.560;2022-07-30T01:53:36;101150.38;;;15.53;78.31
10720;BME280;5411;58.386;15.560;2022-07-30T01:56:08;101150.38;;;15.53;77.99
10720;BME280;5411;58.386;15.560;2022-07-30T01:58:42;101152.69;;;15.50;78.09
10720;BME280;5411;58.386;15.560;2022-07-30T02:01:13;101150.84;;;15.44;79.32
10720;BME280;5411;58.386;15.560;2022-07-30T02:03:42;101145.69;;;15.36;80.39
10720;BME280;5411;58.386;15.560;2022-07-30T02:06:15;101163.78;;;15.28;80.79
10720;BME280;5411;58.386;15.560;2022-07-30T02:08:50;101159.28;;;15.16;81.06
10720;BME280;5411;58.386;15.560;2022-07-30T02:11:23;101158.28;;;15.04;82.09
10720;BME280;5411;58.386;15.560;2022-07-30T02:14:16;101155.81;;;14.95;82.20
10720;BME280;5411;58.386;15.560;2022-07-30T02:16:51;101153.56;;;14.86;83.57
10720;BME280;5411;58.386;15.560;2022-07-30T02:19:21;101153.56;;;14.79;83.58
10720;BME280;5411;58.386;15.560;2022-07-30T02:22:02;101149.44;;;14.70;85.27
10720;BME280;5411;58.386;15.560;2022-07-30T02:24:35;101146.97;;;14.62;85.45
10720;BME280;5411;58.386;15.560;2022-07-30T02:27:09;101148.63;;;14.56;84.38
10720;BME280;5411;58.386;15.560;2022-07-30T02:29:39;101146.78;;;14.50;85.02
10720;BME280;5411;58.386;15.560;2022-07-30T02:32:12;101151.13;;;14.45;86.48
10720;BME280;5411;58.386;15.560;2022-07-30T02:34:42;101153.63;;;14.40;85.67
10720;BME280;5411;58.386;15.560;2022-07-30T02:37:11;101152.38;;;14.36;86.17
10720;BME280;5411;58.386;15.560;2022-07-30T02:39:42;101154.63;;;14.32;86.70
10720;BME280;5411;58.386;15.560;2022-07-30T02:42:12;101157.53;;;14.31;86.64
10720;BME280;5411;58.386;15.560;2022-07-30T02:44:47;101158.13;;;14.26;86.35
10720;BME280;5411;58.386;15.560;2022-07-30T02:47:19;101154.44;;;14.20;87.26
10720;BME280;5411;58.386;15.560;2022-07-30T02:49:50;101153.00;;;14.11;88.99
10720;BME280;5411;58.386;15.560;2022-07-30T02:52:19;101162.91;;;14.04;88.55
10720;BME280;5411;58.386;15.560;2022-07-30T02:54:50;101157.31;;;13.99;88.81
10720;BME280;5411;58.386;15.560;2022-07-30T02:57:23;101155.44;;;13.93;89.47
10720;BME280;5411;58.386;15.560;2022-07-30T02:59:52;101155.22;;;13.88;89.31
10720;BME280;5411;58.386;15.560;2022-07-30T03:02:22;101156.88;;;13.89;90.49
10720;BME280;5411;58.386;15.560;2022-07-30T03:04:57;101161.84;;;13.99;90.96
10720;BME280;5411;58.386;15.560;2022-07-30T03:07:26;101161.06;;;14.11;90.72
10720;BME280;5411;58.386;15.560;2022-07-30T03:09:55;101167.25;;;14.25;89.29
10720;BME280;5411;58.386;15.560;2022-07-30T03:12:29;101158.13;;;14.39;88.30
10720;BME280;5411;58.386;15.560;2022-07-30T03:14:58;101164.59;;;14.58;87.16
10720;BME280;5411;58.386;15.560;2022-07-30T03:17:29;101160.44;;;14.75;86.92
10720;BME280;5411;58.386;15.560;2022-07-30T03:19:59;101160.19;;;14.90;85.74
10720;BME280;5411;58.386;15.560;2022-07-30T03:22:31;101161.16;;;15.09;85.31
10720;BME280;5411;58.386;15.560;2022-07-30T03:25:03;101149.25;;;15.29;84.24
10720;BME280;5411;58.386;15.560;2022-07-30T03:27:35;101151.91;;;15.43;83.37
10720;BME280;5411;58.386;15.560;2022-07-30T03:30:06;101151.59;;;15.64;82.92
10720;BME280;5411;58.386;15.560;2022-07-30T03:32:35;101142.38;;;15.78;81.71
10720;BME280;5411;58.386;15.560;2022-07-30T03:35:05;101153.69;;;15.93;80.99
10720;BME280;5411;58.386;15.560;2022-07-30T03:37:43;101152.34;;;16.09;80.34
10720;BME280;5411;58.386;15.560;2022-07-30T03:40:12;101150.78;;;16.20;79.66
10720;BME280;5411;58.386;15.560;2022-07-30T03:42:42;101144.88;;;16.29;79.55
10720;BME280;5411;58.386;15.560;2022-07-30T03:45:11;101146.94;;;16.34;79.38
10720;BME280;5411;58.386;15.560;2022-07-30T03:47:42;101146.59;;;16.49;78.59
10720;BME280;5411;58.386;15.560;2022-07-30T03:50:12;101148.56;;;16.60;77.84
10720;BME280;5411;58.386;15.560;2022-07-30T03:52:41;101141.22;;;16.67;77.36
10720;BME280;5411;58.386;15.560;2022-07-30T03:55:10;101142.16;;;16.79;76.85
10720;BME280;5411;58.386;15.560;2022-07-30T03:57:38;101142.47;;;16.89;76.52
10720;BME280;5411;58.386;15.560;2022-07-30T04:00:12;101145.59;;;17.04;75.90
10720;BME280;5411;58.386;15.560;2022-07-30T04:02:41;101137.66;;;17.09;75.61
10720;BME280;5411;58.386;15.560;2022-07-30T04:05:10;101134.88;;;17.16;74.94
10720;BME280;5411;58.386;15.560;2022-07-30T04:07:39;101134.41;;;17.19;74.70
10720;BME280;5411;58.386;15.560;2022-07-30T04:10:17;101134.41;;;17.19;74.74
10720;BME280;5411;58.386;15.560;2022-07-30T04:12:45;101136.66;;;17.22;74.46
10720;BME280;5411;58.386;15.560;2022-07-30T04:15:17;101129.97;;;17.25;74.46
10720;BME280;5411;58.386;15.560;2022-07-30T04:18:06;101132.69;;;17.25;74.44
10720;BME280;5411;58.386;15.560;2022-07-30T04:20:40;101131.41;;;17.27;74.33
10720;BME280;5411;58.386;15.560;2022-07-30T04:23:09;101128.69;;;17.27;74.08
10720;BME280;5411;58.386;15.560;2022-07-30T04:25:39;101130.34;;;17.28;74.16
10720;BME280;5411;58.386;15.560;2022-07-30T04:28:10;101124.72;;;17.30;74.29
10720;BME280;5411;58.386;15.560;2022-07-30T04:30:40;101128.16;;;17.37;73.96
10720;BME280;5411;58.386;15.560;2022-07-30T04:33:08;101125.25;;;17.50;73.14
10720;BME280;5411;58.386;15.560;2022-07-30T04:35:36;101126.81;;;17.58;73.23
10720;BME280;5411;58.386;15.560;2022-07-30T04:38:18;101128.63;;;17.64;73.12
10720;BME280;5411;58.386;15.560;2022-07-30T04:40:47;101125.25;;;17.68;72.92
10720;BME280;5411;58.386;15.560;2022-07-30T04:43:15;101130.19;;;17.71;73.05
10720;BME280;5411;58.386;15.560;2022-07-30T04:45:45;101125.59;;;17.72;72.92
10720;BME280;5411;58.386;15.560;2022-07-30T04:48:13;101120.78;;;17.74;73.07
10720;BME280;5411;58.386;15.560;2022-07-30T04:50:43;101137.16;;;17.79;72.84
10720;BME280;5411;58.386;15.560;2022-07-30T04:53:13;101118.69;;;17.88;72.37
10720;BME280;5411;58.386;15.560;2022-07-30T04:55:44;101123.28;;;17.99;72.45
10720;BME280;5411;58.386;15.560;2022-07-30T04:58:17;101121.91;;;18.08;72.05
10720;BME280;5411;58.386;15.560;2022-07-30T05:00:47;101130.38;;;18.11;71.58
10720;BME280;5411;58.386;15.560;2022-07-30T05:03:19;101130.16;;;18.13;71.18
10720;BME280;5411;58.386;15.560;2022-07-30T05:05:49;101127.94;;;18.10;72.12
10720;BME280;5411;58.386;15.560;2022-07-30T05:08:23;101126.59;;;18.01;72.07
10720;BME280;5411;58.386;15.560;2022-07-30T05:10:51;101128.25;;;18.02;71.82
10720;BME280;5411;58.386;15.560;2022-07-30T05:13:21;101121.69;;;18.09;71.07
10720;BME280;5411;58.386;15.560;2022-07-30T05:16:01;101125.31;;;18.15;71.31
10720;BME280;5411;58.386;15.560;2022-07-30T05:18:30;101125.47;;;18.32;71.60
10720;BME280;5411;58.386;15.560;2022-07-30T05:20:58;101112.72;;;18.56;70.67
10720;BME280;5411;58.386;15.560;2022-07-30T05:23:26;101119.13;;;18.73;70.23
10720;BME280;5411;58.386;15.560;2022-07-30T05:25:54;101118.75;;;18.81;69.35
10720;BME280;5411;58.386;15.560;2022-07-30T05:28:22;101119.53;;;18.93;68.82
10720;BME280;5411;58.386;15.560;2022-07-30T05:30:53;101123.16;;;19.10;67.85
10720;BME280;5411;58.386;15.560;2022-07-30T05:33:24;101122.78;;;19.18;67.89
10720;BME280;5411;58.386;15.560;2022-07-30T05:36:08;101122.59;;;19.08;67.55
10720;BME280;5411;58.386;15.560;2022-07-30T05:38:36;101106.66;;;19.12;66.90
10720;BME280;5411;58.386;15.560;2022-07-30T05:41:05;101119.28;;;19.06;67.16
10720;BME280;5411;58.386;15.560;2022-07-30T05:43:54;101120.56;;;19.15;67.04
10720;BME280;5411;58.386;15.560;2022-07-30T05:46:22;101126.81;;;19.16;67.03
10720;BME280;5411;58.386;15.560;2022-07-30T05:48:52;101113.81;;;19.18;67.42
10720;BME280;5411;58.386;15.560;2022-07-30T05:51:20;101109.50;;;19.34;66.84
10720;BME280;5411;58.386;15.560;2022-07-30T05:53:48;101117.53;;;19.40;67.14
10720;BME280;5411;58.386;15.560;2022-07-30T05:56:19;101117.88;;;19.44;67.36
10720;BME280;5411;58.386;15.560;2022-07-30T05:58:50;101119.00;;;19.60;67.00
10720;BME280;5411;58.386;15.560;2022-07-30T06:01:21;101118.53;;;19.79;66.49
10720;BME280;5411;58.386;15.560;2022-07-30T06:03:49;101115.72;;;19.74;66.06
10720;BME280;5411;58.386;15.560;2022-07-30T06:06:19;101112.78;;;19.92;66.53
10720;BME280;5411;58.386;15.560;2022-07-30T06:08:49;101117.22;;;19.99;65.87
10720;BME280;5411;58.386;15.560;2022-07-30T06:11:17;101115.44;;;20.04;66.07
10720;BME280;5411;58.386;15.560;2022-07-30T06:13:52;101105.38;;;20.05;65.97
10720;BME280;5411;58.386;15.560;2022-07-30T06:16:20;101116.97;;;20.00;66.50
10720;BME280;5411;58.386;15.560;2022-07-30T06:18:48;101112.47;;;19.89;66.02
10720;BME280;5411;58.386;15.560;2022-07-30T06:21:16;101115.16;;;19.89;66.29
10720;BME280;5411;58.386;15.560;2022-07-30T06:23:46;101111.31;;;20.02;67.02
10720;BME280;5411;58.386;15.560;2022-07-30T06:26:14;101116.59;;;20.08;66.38
10720;BME280;5411;58.386;15.560;2022-07-30T06:28:42;101119.22;;;20.20;65.88
10720;BME280;5411;58.386;15.560;2022-07-30T06:31:11;101113.19;;;20.35;65.96
10720;BME280;5411;58.386;15.560;2022-07-30T06:33:40;101115.59;;;20.31;65.29
10720;BME280;5411;58.386;15.560;2022-07-30T06:36:08;101108.84;;;20.34;65.41
10720;BME280;5411;58.386;15.560;2022-07-30T06:38:42;101108.28;;;20.48;65.20
10720;BME280;5411;58.386;15.560;2022-07-30T06:41:12;101111.63;;;20.55;65.01
10720;BME280;5411;58.386;15.560;2022-07-30T06:43:58;101108.63;;;20.74;64.12
10720;BME280;5411;58.386;15.560;2022-07-30T06:46:26;101109.25;;;20.81;64.13
10720;BME280;5411;58.386;15.560;2022-07-30T06:48:54;101103.06;;;20.85;64.63
10720;BME280;5411;58.386;15.560;2022-07-30T06:51:23;101102.50;;;20.83;63.86
10720;BME280;5411;58.386;15.560;2022-07-30T06:53:51;101099.28;;;20.86;63.61
10720;BME280;5411;58.386;15.560;2022-07-30T06:56:20;101102.81;;;20.87;63.85
10720;BME280;5411;58.386;15.560;2022-07-30T06:58:48;101099.84;;;20.88;64.57
10720;BME280;5411;58.386;15.560;2022-07-30T07:01:16;101100.72;;;20.94;63.32
10720;BME280;5411;58.386;15.560;2022-07-30T07:03:52;101098.75;;;21.11;62.72
10720;BME280;5411;58.386;15.560;2022-07-30T07:06:20;101094.78;;;21.19;62.90
10720;BME280;5411;58.386;15.560;2022-07-30T07:08:48;101093.28;;;21.28;63.61
10720;BME280;5411;58.386;15.560;2022-07-30T07:11:16;101101.22;;;21.34;63.16
10720;BME280;5411;58.386;15.560;2022-07-30T07:13:48;101089.59;;;21.44;62.30
10720;BME280;5411;58.386;15.560;2022-07-30T07:16:16;101091.31;;;21.50;61.88
10720;BME280;5411;58.386;15.560;2022-07-30T07:18:47;101089.47;;;21.56;61.63
10720;BME280;5411;58.386;15.560;2022-07-30T07:21:18;101078.34;;;21.62;61.13
10720;BME280;5411;58.386;15.560;2022-07-30T07:23:47;101083.31;;;21.70;61.05
10720;BME280;5411;58.386;15.560;2022-07-30T07:26:15;101073.34;;;21.81;60.30
10720;BME280;5411;58.386;15.560;2022-07-30T07:28:43;101078.88;;;21.91;60.18
10720;BME280;5411;58.386;15.560;2022-07-30T07:31:13;101076.31;;;22.07;60.88
10720;BME280;5411;58.386;15.560;2022-07-30T07:34:01;101072.75;;;22.06;59.29
10720;BME280;5411;58.386;15.560;2022-07-30T07:36:30;101076.38;;;22.17;59.95
10720;BME280;5411;58.386;15.560;2022-07-30T07:39:09;101070.72;;;22.28;58.82
10720;BME280;5411;58.386;15.560;2022-07-30T07:41:40;101066.41;;;22.37;58.16
10720;BME280;5411;58.386;15.560;2022-07-30T07:44:15;101063.56;;;22.59;57.95
10720;BME280;5411;58.386;15.560;2022-07-30T07:47:02;101064.78;;;22.84;58.23
10720;BME280;5411;58.386;15.560;2022-07-30T07:49:32;101058.06;;;23.12;56.95
10720;BME280;5411;58.386;15.560;2022-07-30T07:52:00;101060.00;;;23.26;56.49
10720;BME280;5411;58.386;15.560;2022-07-30T07:54:28;101055.13;;;23.43;56.06
10720;BME280;5411;58.386;15.560;2022-07-30T07:56:59;101054.06;;;23.60;54.79
10720;BME280;5411;58.386;15.560;2022-07-30T07:59:30;101050.25;;;23.71;54.31
10720;BME280;5411;58.386;15.560;2022-07-30T08:02:07;101048.88;;;23.84;54.15
10720;BME280;5411;58.386;15.560;2022-07-30T08:04:35;101052.16;;;23.91;55.13
10720;BME280;5411;58.386;15.560;2022-07-30T08:07:03;101037.69;;;23.95;53.97
10720;BME280;5411;58.386;15.560;2022-07-30T08:09:31;101041.75;;;23.98;52.89
10720;BME280;5411;58.386;15.560;2022-07-30T08:12:10;101044.22;;;24.04;53.89
10720;BME280;5411;58.386;15.560;2022-07-30T08:14:40;101041.22;;;24.01;52.41
10720;BME280;5411;58.386;15.560;2022-07-30T08:17:10;101037.94;;;23.99;52.53
10720;BME280;5411;58.386;15.560;2022-07-30T08:19:38;101039.31;;;24.06;52.59
10720;BME280;5411;58.386;15.560;2022-07-30T08:22:06;101048.03;;;24.19;51.90
10720;BME280;5411;58.386;15.560;2022-07-30T08:24:34;101040.38;;;24.26;51.86
10720;BME280;5411;58.386;15.560;2022-07-30T08:27:03;101048.00;;;24.39;51.09
10720;BME280;5411;58.386;15.560;2022-07-30T08:29:31;101042.75;;;24.52;50.93
10720;BME280;5411;58.386;15.560;2022-07-30T08:31:59;101038.63;;;24.65;51.10
10720;BME280;5411;58.386;15.560;2022-07-30T08:34:29;101041.31;;;24.75;49.96
10720;BME280;5411;58.386;15.560;2022-07-30T08:36:57;101038.00;;;24.83;49.87
10720;BME280;5411;58.386;15.560;2022-07-30T08:39:27;101038.50;;;24.91;49.58
10720;BME280;5411;58.386;15.560;2022-07-30T08:41:56;101043.72;;;24.97;48.53
10720;BME280;5411;58.386;15.560;2022-07-30T08:44:27;101036.09;;;24.79;47.20
10720;BME280;5411;58.386;15.560;2022-07-30T08:46:58;101030.88;;;24.77;48.44
10720;BME280;5411;58.386;15.560;2022-07-30T08:49:27;101033.00;;;24.91;48.76
10720;BME280;5411;58.386;15.560;2022-07-30T08:51:59;101036.03;;;24.99;47.64
10720;BME280;5411;58.386;15.560;2022-07-30T08:54:28;101030.00;;;25.02;48.43
10720;BME280;5411;58.386;15.560;2022-07-30T08:56:59;101019.28;;;25.06;46.92
10720;BME280;5411;58.386;15.560;2022-07-30T08:59:30;101011.53;;;25.18;47.17
10720;BME280;5411;58.386;15.560;2022-07-30T09:02:18;101017.81;;;25.24;47.62
10720;BME280;5411;58.386;15.560;2022-07-30T09:05:02;101017.47;;;25.30;47.12
10720;BME280;5411;58.386;15.560;2022-07-30T09:07:33;101012.75;;;25.41;46.67
10720;BME280;5411;58.386;15.560;2022-07-30T09:10:02;101015.44;;;25.46;46.91
10720;BME280;5411;58.386;15.560;2022-07-30T09:12:34;101007.72;;;25.53;46.94
10720;BME280;5411;58.386;15.560;2022-07-30T09:15:05;101012.66;;;25.56;46.82
10720;BME280;5411;58.386;15.560;2022-07-30T09:17:53;101020.84;;;25.61;45.13
10720;BME280;5411;58.386;15.560;2022-07-30T09:20:23;101016.53;;;25.45;45.15
10720;BME280;5411;58.386;15.560;2022-07-30T09:22:54;101005.31;;;25.46;46.57
10720;BME280;5411;58.386;15.560;2022-07-30T09:25:35;101000.31;;;25.53;46.23
10720;BME280;5411;58.386;15.560;2022-07-30T09:28:07;101008.50;;;25.64;46.42
10720;BME280;5411;58.386;15.560;2022-07-30T09:30:46;100998.59;;;25.68;44.33
10720;BME280;5411;58.386;15.560;2022-07-30T09:33:30;101001.28;;;25.73;45.21
10720;BME280;5411;58.386;15.560;2022-07-30T09:36:06;100996.19;;;25.90;45.49
10720;BME280;5411;58.386;15.560;2022-07-30T09:38:43;100996.59;;;26.02;45.02
10720;BME280;5411;58.386;15.560;2022-07-30T09:41:14;100993.53;;;26.09;44.82
10720;BME280;5411;58.386;15.560;2022-07-30T09:44:04;100996.06;;;26.24;43.82
10720;BME280;5411;58.386;15.560;2022-07-30T09:46:42;101002.53;;;26.38;42.85
10720;BME280;5411;58.386;15.560;2022-07-30T09:49:14;100996.41;;;26.46;43.48
10720;BME280;5411;58.386;15.560;2022-07-30T09:52:02;100993.53;;;26.56;42.54
10720;BME280;5411;58.386;15.560;2022-07-30T09:54:47;101000.81;;;26.66;41.44
10720;BME280;5411;58.386;15.560;2022-07-30T09:57:19;100992.81;;;26.70;41.21
10720;BME280;5411;58.386;15.560;2022-07-30T09:59:54;100989.28;;;26.88;41.77
10720;BME280;5411;58.386;15.560;2022-07-30T10:02:29;100981.66;;;27.04;40.77
10720;BME280;5411;58.386;15.560;2022-07-30T10:05:12;100978.31;;;27.25;40.25
10720;BME280;5411;58.386;15.560;2022-07-30T10:07:49;100972.06;;;27.39;37.68
10720;BME280;5411;58.386;15.560;2022-07-30T10:10:23;100983.38;;;27.51;38.68
10720;BME280;5411;58.386;15.560;2022-07-30T10:12:56;100981.81;;;27.45;39.17
10720;BME280;5411;58.386;15.560;2022-07-30T10:15:28;100972.75;;;27.12;38.40
10720;BME280;5411;58.386;15.560;2022-07-30T10:17:59;100979.41;;;26.87;39.34
10720;BME280;5411;58.386;15.560;2022-07-30T10:20:27;100984.81;;;26.73;40.12
10720;BME280;5411;58.386;15.560;2022-07-30T10:22:58;100980.34;;;26.58;37.94
10720;BME280;5411;58.386;15.560;2022-07-30T10:25:36;100980.47;;;26.48;39.85
10720;BME280;5411;58.386;15.560;2022-07-30T10:28:21;100972.81;;;26.45;39.29
10720;BME280;5411;58.386;15.560;2022-07-30T10:30:51;100973.06;;;26.49;37.22
10720;BME280;5411;58.386;15.560;2022-07-30T10:33:20;100970.78;;;26.32;35.92
10720;BME280;5411;58.386;15.560;2022-07-30T10:36:03;100971.91;;;26.31;39.55
10720;BME280;5411;58.386;15.560;2022-07-30T10:38:36;100977.00;;;26.38;39.38
10720;BME280;5411;58.386;15.560;2022-07-30T10:41:20;100972.00;;;26.45;40.55
10720;BME280;5411;58.386;15.560;2022-07-30T10:44:42;100969.13;;;26.55;37.59
10720;BME280;5411;58.386;15.560;2022-07-30T10:47:16;100971.22;;;26.63;40.42
10720;BME280;5411;58.386;15.560;2022-07-30T10:50:06;100967.22;;;26.74;39.02
10720;BME280;5411;58.386;15.560;2022-07-30T10:55:30;100965.50;;;27.02;38.72
10720;BME280;5411;58.386;15.560;2022-07-30T10:58:07;100956.78;;;27.14;39.01
10720;BME280;5411;58.386;15.560;2022-07-30T11:00:57;100967.31;;;27.25;39.40
10720;BME280;5411;58.386;15.560;2022-07-30T11:03:26;100968.03;;;27.31;39.25
10720;BME280;5411;58.386;15.560;2022-07-30T11:06:26;100960.53;;;27.37;38.32
10720;BME280;5411;58.386;15.560;2022-07-30T11:09:35;100956.50;;;27.48;38.45
10720;BME280;5411;58.386;15.560;2022-07-30T11:12:08;100953.91;;;27.56;38.80
10720;BME280;5411;58.386;15.560;2022-07-30T11:14:56;100954.72;;;27.71;38.21
10720;BME280;5411;58.386;15.560;2022-07-30T11:18:00;100955.78;;;27.88;35.77
10720;BME280;5411;58.386;15.560;2022-07-30T11:20:30;100951.06;;;28.21;35.91
10720;BME280;5411;58.386;15.560;2022-07-30T11:23:10;100952.34;;;28.51;36.54
10720;BME280;5411;58.386;15.560;2022-07-30T11:25:40;100954.47;;;28.68;34.29
10720;BME280;5411;58.386;15.560;2022-07-30T11:28:33;100945.06;;;28.69;34.34
10720;BME280;5411;58.386;15.560;2022-07-30T11:31:25;100947.28;;;28.45;34.49
10720;BME280;5411;58.386;15.560;2022-07-30T11:34:28;100949.41;;;28.07;34.90
10720;BME280;5411;58.386;15.560;2022-07-30T11:37:10;100941.00;;;27.84;35.67
10720;BME280;5411;58.386;15.560;2022-07-30T11:40:08;100941.69;;;27.62;35.11
10720;BME280;5411;58.386;15.560;2022-07-30T11:42:38;100943.25;;;27.50;36.09
10720;BME280;5411;58.386;15.560;2022-07-30T11:45:21;100948.72;;;27.36;35.57
10720;BME280;5411;58.386;15.560;2022-07-30T11:47:59;100955.78;;;27.42;36.11
10720;BME280;5411;58.386;15.560;2022-07-30T11:50:30;100951.00;;;27.48;36.07
10720;BME280;5411;58.386;15.560;2022-07-30T11:53:00;100939.47;;;27.64;36.01
10720;BME280;5411;58.386;15.560;2022-07-30T11:55:31;100938.16;;;27.76;36.91
10720;BME280;5411;58.386;15.560;2022-07-30T11:58:02;100926.94;;;27.86;37.69
10720;BME280;5411;58.386;15.560;2022-07-30T12:00:37;100936.53;;;28.02;37.21
10720;BME280;5411;58.386;15.560;2022-07-30T12:03:08;100935.44;;;28.17;37.08
10720;BME280;5411;58.386;15.560;2022-07-30T12:05:38;100937.59;;;28.33;35.24
10720;BME280;5411;58.386;15.560;2022-07-30T12:08:07;100931.78;;;28.49;35.04
10720;BME280;5411;58.386;15.560;2022-07-30T12:11:02;100930.63;;;28.50;34.76
10720;BME280;5411;58.386;15.560;2022-07-30T12:13:33;100924.13;;;28.46;34.54
10720;BME280;5411;58.386;15.560;2022-07-30T12:16:13;100925.03;;;28.41;34.05
10720;BME280;5411;58.386;15.560;2022-07-30T12:18:51;100919.34;;;28.24;33.86
10720;BME280;5411;58.386;15.560;2022-07-30T12:21:28;100921.69;;;28.30;31.99
10720;BME280;5411;58.386;15.560;2022-07-30T12:23:58;100919.84;;;28.26;31.22
10720;BME280;5411;58.386;15.560;2022-07-30T12:26:28;100920.75;;;28.49;32.32
10720;BME280;5411;58.386;15.560;2022-07-30T12:28:58;100914.41;;;28.62;31.89
10720;BME280;5411;58.386;15.560;2022-07-30T12:31:28;100913.03;;;28.87;33.71
10720;BME280;5411;58.386;15.560;2022-07-30T12:33:58;100912.72;;;29.11;32.97
10720;BME280;5411;58.386;15.560;2022-07-30T12:36:29;100911.94;;;29.19;31.99
10720;BME280;5411;58.386;15.560;2022-07-30T12:38:59;100904.75;;;29.09;31.84
10720;BME280;5411;58.386;15.560;2022-07-30T12:41:49;100911.59;;;28.89;32.80
10720;BME280;5411;58.386;15.560;2022-07-30T12:44:37;100910.84;;;28.48;33.29
10720;BME280;5411;58.386;15.560;2022-07-30T12:47:18;100913.34;;;28.22;34.77
10720;BME280;5411;58.386;15.560;2022-07-30T12:49:49;100911.56;;;28.12;34.11
10720;BME280;5411;58.386;15.560;2022-07-30T12:52:20;100910.06;;;28.06;34.85
10720;BME280;5411;58.386;15.560;2022-07-30T12:55:03;100915.13;;;27.99;35.74
10720;BME280;5411;58.386;15.560;2022-07-30T12:57:52;100920.25;;;27.92;33.23
10720;BME280;5411;58.386;15.560;2022-07-30T13:00:21;100911.84;;;27.83;35.52
10720;BME280;5411;58.386;15.560;2022-07-30T13:02:49;100919.63;;;27.81;35.13
10720;BME280;5411;58.386;15.560;2022-07-30T13:05:18;100911.44;;;27.62;35.01
10720;BME280;5411;58.386;15.560;2022-07-30T13:07:54;100913.72;;;27.42;34.96
10720;BME280;5411;58.386;15.560;2022-07-30T13:10:23;100909.50;;;27.30;35.70
10720;BME280;5411;58.386;15.560;2022-07-30T13:13:09;100909.19;;;27.32;35.89
10720;BME280;5411;58.386;15.560;2022-07-30T13:15:37;100911.41;;;27.30;34.64
10720;BME280;5411;58.386;15.560;2022-07-30T13:18:22;100909.91;;;27.24;34.62
10720;BME280;5411;58.386;15.560;2022-07-30T13:20:52;100904.47;;;27.19;36.16
10720;BME280;5411;58.386;15.560;2022-07-30T13:23:21;100903.19;;;27.30;35.88